sensor_id;sensor_type;location;lat;lon;timestamp;P1;durP1;ratioP1;P2;durP2;ratioP2
50219;SDS011;36110;51.536;7.562;2023-04-24T00:01:45;0.90;;;0.70;;
50219;SDS011;36110;51.536;7.562;2023-04-24T00:04:10;0.90;;;0.70;;
50219;SDS011;36110;51.536;7.562;2023-04-24T00:06:36;0.95;;;0.50;;
50219;SDS011;36110;51.536;7.562;2023-04-24T00:09:05;0.85;;;0.55;;
50219;SDS011;36110;51.536;7.562;2023-04-24T00:11:30;2.28;;;0.80;;
50219;SDS011;36110;51.536;7.562;2023-04-24T00:13:56;0.63;;;0.63;;
50219;SDS011;36110;51.536;7.562;2023-04-24T00:16:22;0.68;;;0.68;;
50219;SDS011;36110;51.536;7.562;2023-04-24T00:18:47;0.60;;;0.60;;
50219;SDS011;36110;51.536;7.562;2023-04-24T00:21:13;0.85;;;0.70;;
50219;SDS011;36110;51.536;7.562;2023-04-24T00:23:40;0.70;;;0.70;;
50219;SDS011;36110;51.536;7.562;2023-04-24T00:26:06;0.90;;;0.70;;
50219;SDS011;36110;51.536;7.562;2023-04-24T00:28:31;0.63;;;0.60;;
50219;SDS011;36110;51.536;7.562;2023-04-24T00:30:56;0.63;;;0.63;;
50219;SDS011;36110;51.536;7.562;2023-04-24T00:33:22;1.08;;;0.70;;
50219;SDS011;36110;51.536;7.562;2023-04-24T00:35:47;0.77;;;0.77;;
50219;SDS011;36110;51.536;7.562;2023-04-24T00:38:12;0.70;;;0.70;;
50219;SDS011;36110;51.536;7.562;2023-04-24T00:40:38;2.35;;;0.70;;
50219;SDS011;36110;51.536;7.562;2023-04-24T00:43:03;1.05;;;0.63;;
50219;SDS011;36110;51.536;7.562;2023-04-24T00:45:28;0.77;;;0.65;;
50219;SDS011;36110;51.536;7.562;2023-04-24T00:47:56;1.05;;;0.75;;
50219;SDS011;36110;51.536;7.562;2023-04-24T00:50:21;1.25;;;0.73;;
50219;SDS011;36110;51.536;7.562;2023-04-24T00:52:47;1.25;;;0.70;;
50219;SDS011;36110;51.536;7.562;2023-04-24T00:55:12;1.15;;;0.88;;
50219;SDS011;36110;51.536;7.562;2023-04-24T00:57:38;0.90;;;0.82;;
50219;SDS011;36110;51.536;7.562;2023-04-24T01:00:04;0.85;;;0.73;;
50219;SDS011;36110;51.536;7.562;2023-04-24T01:02:30;1.60;;;1.10;;
50219;SDS011;36110;51.536;7.562;2023-04-24T01:04:59;2.63;;;0.80;;
50219;SDS011;36110;51.536;7.562;2023-04-24T01:07:25;0.95;;;0.73;;
50219;SDS011;36110;51.536;7.562;2023-04-24T01:09:51;1.13;;;0.70;;
50219;SDS011;36110;51.536;7.562;2023-04-24T01:12:17;1.25;;;0.80;;
50219;SDS011;36110;51.536;7.562;2023-04-24T01:14:42;1.67;;;0.88;;
50219;SDS011;36110;51.536;7.562;2023-04-24T01:17:08;0.82;;;0.82;;
50219;SDS011;36110;51.536;7.562;2023-04-24T01:19:34;1.40;;;1.30;;
50219;SDS011;36110;51.536;7.562;2023-04-24T01:21:59;1.35;;;1.00;;
50219;SDS011;36110;51.536;7.562;2023-04-24T01:24:27;1.88;;;0.80;;
50219;SDS011;36110;51.536;7.562;2023-04-24T01:26:53;0.80;;;0.80;;
50219;SDS011;36110;51.536;7.562;2023-04-24T01:29:18;1.30;;;1.00;;
50219;SDS011;36110;51.536;7.562;2023-04-24T01:31:44;0.73;;;0.73;;
50219;SDS011;36110;51.536;7.562;2023-04-24T01:34:10;0.70;;;0.70;;
50219;SDS011;36110;51.536;7.562;2023-04-24T01:36:35;1.55;;;1.10;;
50219;SDS011;36110;51.536;7.562;2023-04-24T01:39:01;1.83;;;1.48;;
50219;SDS011;36110;51.536;7.562;2023-04-24T01:41:27;0.60;;;0.60;;
50219;SDS011;36110;51.536;7.562;2023-04-24T01:43:53;1.75;;;1.15;;
50219;SDS011;36110;51.536;7.562;2023-04-24T01:46:18;1.02;;;1.00;;
50219;SDS011;36110;51.536;7.562;2023-04-24T01:48:44;2.65;;;1.42;;
50219;SDS011;36110;51.536;7.562;2023-04-24T01:51:10;1.17;;;1.00;;
50219;SDS011;36110;51.536;7.562;2023-04-24T01:53:35;1.00;;;0.90;;
50219;SDS011;36110;51.536;7.562;2023-04-24T01:56:01;1.45;;;1.15;;
50219;SDS011;36110;51.536;7.562;2023-04-24T01:58:26;0.95;;;0.73;;
50219;SDS011;36110;51.536;7.562;2023-04-24T02:00:52;0.65;;;0.65;;
50219;SDS011;36110;51.536;7.562;2023-04-24T02:03:17;2.63;;;0.60;;
50219;SDS011;36110;51.536;7.562;2023-04-24T02:05:45;0.77;;;0.77;;
50219;SDS011;36110;51.536;7.562;2023-04-24T02:08:10;0.77;;;0.77;;
50219;SDS011;36110;51.536;7.562;2023-04-24T02:10:36;1.80;;;0.90;;
50219;SDS011;36110;51.536;7.562;2023-04-24T02:13:01;2.47;;;1.60;;
50219;SDS011;36110;51.536;7.562;2023-04-24T02:15:27;1.38;;;0.98;;
50219;SDS011;36110;51.536;7.562;2023-04-24T02:17:52;1.17;;;0.70;;
50219;SDS011;36110;51.536;7.562;2023-04-24T02:20:18;2.05;;;1.38;;
50219;SDS011;36110;51.536;7.562;2023-04-24T02:22:43;1.00;;;1.00;;
50219;SDS011;36110;51.536;7.562;2023-04-24T02:25:08;2.22;;;1.23;;
50219;SDS011;36110;51.536;7.562;2023-04-24T02:27:34;3.30;;;1.80;;
50219;SDS011;36110;51.536;7.562;2023-04-24T02:29:59;0.52;;;0.52;;
50219;SDS011;36110;51.536;7.562;2023-04-24T02:32:25;0.90;;;0.90;;
50219;SDS011;36110;51.536;7.562;2023-04-24T02:34:50;1.98;;;1.35;;
50219;SDS011;36110;51.536;7.562;2023-04-24T02:37:15;1.15;;;1.02;;
50219;SDS011;36110;51.536;7.562;2023-04-24T02:39:41;1.02;;;1.02;;
50219;SDS011;36110;51.536;7.562;2023-04-24T02:42:06;1.60;;;1.20;;
50219;SDS011;36110;51.536;7.562;2023-04-24T02:44:32;0.68;;;0.68;;
50219;SDS011;36110;51.536;7.562;2023-04-24T02:46:58;1.02;;;0.80;;
50219;SDS011;36110;51.536;7.562;2023-04-24T02:49:23;0.93;;;0.90;;
50219;SDS011;36110;51.536;7.562;2023-04-24T02:51:49;1.17;;;0.80;;
50219;SDS011;36110;51.536;7.562;2023-04-24T02:54:14;0.70;;;0.70;;
50219;SDS011;36110;51.536;7.562;2023-04-24T02:56:39;1.30;;;0.93;;
50219;SDS011;36110;51.536;7.562;2023-04-24T02:59:05;3.28;;;0.88;;
50219;SDS011;36110;51.536;7.562;2023-04-24T03:01:30;4.55;;;2.03;;
50219;SDS011;36110;51.536;7.562;2023-04-24T03:03:56;2.92;;;1.83;;
50219;SDS011;36110;51.536;7.562;2023-04-24T03:06:21;2.25;;;2.03;;
50219;SDS011;36110;51.536;7.562;2023-04-24T03:08:47;2.92;;;1.73;;
50219;SDS011;36110;51.536;7.562;2023-04-24T03:11:12;1.50;;;1.40;;
50219;SDS011;36110;51.536;7.562;2023-04-24T03:13:37;2.25;;;1.98;;
50219;SDS011;36110;51.536;7.562;2023-04-24T03:16:03;1.27;;;1.23;;
50219;SDS011;36110;51.536;7.562;2023-04-24T03:18:28;1.85;;;1.70;;
50219;SDS011;36110;51.536;7.562;2023-04-24T03:20:53;4.80;;;4.32;;
50219;SDS011;36110;51.536;7.562;2023-04-24T03:23:18;2.03;;;1.40;;
50219;SDS011;36110;51.536;7.562;2023-04-24T03:25:44;2.78;;;2.55;;
50219;SDS011;36110;51.536;7.562;2023-04-24T03:28:10;2.30;;;2.13;;
50219;SDS011;36110;51.536;7.562;2023-04-24T03:30:35;1.70;;;1.60;;
50219;SDS011;36110;51.536;7.562;2023-04-24T03:33:00;4.03;;;3.45;;
50219;SDS011;36110;51.536;7.562;2023-04-24T03:35:26;4.15;;;2.47;;
50219;SDS011;36110;51.536;7.562;2023-04-24T03:37:51;5.78;;;4.00;;
50219;SDS011;36110;51.536;7.562;2023-04-24T03:40:17;2.80;;;2.17;;
50219;SDS011;36110;51.536;7.562;2023-04-24T03:42:42;3.05;;;2.10;;
50219;SDS011;36110;51.536;7.562;2023-04-24T03:45:07;1.15;;;1.15;;
50219;SDS011;36110;51.536;7.562;2023-04-24T03:47:33;3.22;;;2.78;;
50219;SDS011;36110;51.536;7.562;2023-04-24T03:49:59;4.15;;;3.75;;
50219;SDS011;36110;51.536;7.562;2023-04-24T03:52:24;8.38;;;5.93;;
50219;SDS011;36110;51.536;7.562;2023-04-24T03:54:49;7.28;;;5.00;;
50219;SDS011;36110;51.536;7.562;2023-04-24T03:57:14;6.18;;;4.75;;
50219;SDS011;36110;51.536;7.562;2023-04-24T03:59:40;1.67;;;1.50;;
50219;SDS011;36110;51.536;7.562;2023-04-24T04:02:05;6.65;;;4.75;;
50219;SDS011;36110;51.536;7.562;2023-04-24T04:04:30;5.95;;;4.55;;
50219;SDS011;36110;51.536;7.562;2023-04-24T04:06:56;3.47;;;3.00;;
50219;SDS011;36110;51.536;7.562;2023-04-24T04:09:21;2.65;;;2.13;;
50219;SDS011;36110;51.536;7.562;2023-04-24T04:11:47;2.85;;;2.28;;
50219;SDS011;36110;51.536;7.562;2023-04-24T04:14:12;2.15;;;1.90;;
50219;SDS011;36110;51.536;7.562;2023-04-24T04:16:37;8.27;;;5.40;;
50219;SDS011;36110;51.536;7.562;2023-04-24T04:19:03;4.10;;;2.90;;
50219;SDS011;36110;51.536;7.562;2023-04-24T04:21:29;7.15;;;5.13;;
50219;SDS011;36110;51.536;7.562;2023-04-24T04:23:55;6.10;;;3.65;;
50219;SDS011;36110;51.536;7.562;2023-04-24T04:26:21;3.65;;;3.15;;
50219;SDS011;36110;51.536;7.562;2023-04-24T04:28:50;5.47;;;3.83;;
50219;SDS011;36110;51.536;7.562;2023-04-24T04:31:16;2.13;;;1.80;;
50219;SDS011;36110;51.536;7.562;2023-04-24T04:33:41;6.47;;;5.55;;
50219;SDS011;36110;51.536;7.562;2023-04-24T04:36:06;7.32;;;5.28;;
50219;SDS011;36110;51.536;7.562;2023-04-24T04:38:32;8.00;;;4.93;;
50219;SDS011;36110;51.536;7.562;2023-04-24T04:40:58;10.60;;;7.15;;
50219;SDS011;36110;51.536;7.562;2023-04-24T04:43:24;3.45;;;2.70;;
50219;SDS011;36110;51.536;7.562;2023-04-24T04:45:49;10.35;;;6.93;;
50219;SDS011;36110;51.536;7.562;2023-04-24T04:48:16;3.38;;;2.53;;
50219;SDS011;36110;51.536;7.562;2023-04-24T04:50:42;4.70;;;4.07;;
50219;SDS011;36110;51.536;7.562;2023-04-24T04:53:07;4.45;;;3.53;;
50219;SDS011;36110;51.536;7.562;2023-04-24T04:55:33;7.65;;;4.43;;
50219;SDS011;36110;51.536;7.562;2023-04-24T04:57:59;9.27;;;6.22;;
50219;SDS011;36110;51.536;7.562;2023-04-24T05:00:25;9.82;;;5.30;;
50219;SDS011;36110;51.536;7.562;2023-04-24T05:02:50;9.35;;;5.28;;
50219;SDS011;36110;51.536;7.562;2023-04-24T05:05:16;2.72;;;2.50;;
50219;SDS011;36110;51.536;7.562;2023-04-24T05:07:42;4.47;;;3.22;;
50219;SDS011;36110;51.536;7.562;2023-04-24T05:10:08;3.63;;;3.20;;
50219;SDS011;36110;51.536;7.562;2023-04-24T05:12:34;8.02;;;5.50;;
50219;SDS011;36110;51.536;7.562;2023-04-24T05:14:59;4.40;;;3.97;;
50219;SDS011;36110;51.536;7.562;2023-04-24T05:17:24;10.13;;;8.73;;
50219;SDS011;36110;51.536;7.562;2023-04-24T05:19:50;9.15;;;6.22;;
50219;SDS011;36110;51.536;7.562;2023-04-24T05:22:16;11.25;;;7.32;;
50219;SDS011;36110;51.536;7.562;2023-04-24T05:24:43;11.57;;;7.15;;
50219;SDS011;36110;51.536;7.562;2023-04-24T05:27:08;8.80;;;7.15;;
50219;SDS011;36110;51.536;7.562;2023-04-24T05:29:34;5.82;;;4.85;;
50219;SDS011;36110;51.536;7.562;2023-04-24T05:31:59;6.10;;;5.40;;
50219;SDS011;36110;51.536;7.562;2023-04-24T05:34:25;11.80;;;8.32;;
50219;SDS011;36110;51.536;7.562;2023-04-24T05:36:51;6.95;;;5.35;;
50219;SDS011;36110;51.536;7.562;2023-04-24T05:39:17;15.38;;;8.95;;
50219;SDS011;36110;51.536;7.562;2023-04-24T05:41:42;11.63;;;9.27;;
50219;SDS011;36110;51.536;7.562;2023-04-24T05:44:08;11.85;;;9.35;;
50219;SDS011;36110;51.536;7.562;2023-04-24T05:46:33;13.32;;;9.57;;
50219;SDS011;36110;51.536;7.562;2023-04-24T05:48:59;13.95;;;8.70;;
50219;SDS011;36110;51.536;7.562;2023-04-24T05:51:24;12.45;;;9.05;;
50219;SDS011;36110;51.536;7.562;2023-04-24T05:53:50;10.82;;;9.02;;
50219;SDS011;36110;51.536;7.562;2023-04-24T05:56:16;12.18;;;8.68;;
50219;SDS011;36110;51.536;7.562;2023-04-24T05:58:41;11.10;;;8.70;;
50219;SDS011;36110;51.536;7.562;2023-04-24T06:01:07;10.88;;;8.10;;
50219;SDS011;36110;51.536;7.562;2023-04-24T06:03:32;11.65;;;9.05;;
50219;SDS011;36110;51.536;7.562;2023-04-24T06:05:58;15.10;;;9.50;;
50219;SDS011;36110;51.536;7.562;2023-04-24T06:08:23;11.40;;;7.15;;
50219;SDS011;36110;51.536;7.562;2023-04-24T06:10:49;11.77;;;8.18;;
50219;SDS011;36110;51.536;7.562;2023-04-24T06:13:14;10.07;;;6.88;;
50219;SDS011;36110;51.536;7.562;2023-04-24T06:15:40;12.35;;;9.55;;
50219;SDS011;36110;51.536;7.562;2023-04-24T06:18:05;11.60;;;7.88;;
50219;SDS011;36110;51.536;7.562;2023-04-24T06:20:31;10.57;;;8.55;;
50219;SDS011;36110;51.536;7.562;2023-04-24T06:22:56;10.52;;;8.73;;
50219;SDS011;36110;51.536;7.562;2023-04-24T06:25:21;10.43;;;8.80;;
50219;SDS011;36110;51.536;7.562;2023-04-24T06:27:47;8.98;;;7.28;;
50219;SDS011;36110;51.536;7.562;2023-04-24T06:30:12;9.52;;;8.50;;
50219;SDS011;36110;51.536;7.562;2023-04-24T06:32:38;10.32;;;8.35;;
50219;SDS011;36110;51.536;7.562;2023-04-24T06:35:04;11.48;;;7.28;;
50219;SDS011;36110;51.536;7.562;2023-04-24T06:37:32;10.43;;;8.27;;
50219;SDS011;36110;51.536;7.562;2023-04-24T06:39:57;11.02;;;8.40;;
50219;SDS011;36110;51.536;7.562;2023-04-24T06:42:22;11.10;;;7.15;;
50219;SDS011;36110;51.536;7.562;2023-04-24T06:44:49;9.93;;;7.90;;
50219;SDS011;36110;51.536;7.562;2023-04-24T06:47:15;16.00;;;8.98;;
50219;SDS011;36110;51.536;7.562;2023-04-24T06:49:40;9.68;;;8.50;;
50219;SDS011;36110;51.536;7.562;2023-04-24T06:52:06;9.07;;;6.82;;
50219;SDS011;36110;51.536;7.562;2023-04-24T06:54:31;9.32;;;8.18;;
50219;SDS011;36110;51.536;7.562;2023-04-24T06:56:57;5.90;;;5.28;;
50219;SDS011;36110;51.536;7.562;2023-04-24T06:59:24;9.32;;;6.43;;
50219;SDS011;36110;51.536;7.562;2023-04-24T07:01:49;13.18;;;9.63;;
50219;SDS011;36110;51.536;7.562;2023-04-24T07:04:16;8.90;;;7.32;;
50219;SDS011;36110;51.536;7.562;2023-04-24T07:06:41;9.80;;;6.38;;
50219;SDS011;36110;51.536;7.562;2023-04-24T07:09:07;9.43;;;7.38;;
50219;SDS011;36110;51.536;7.562;2023-04-24T07:11:34;7.85;;;6.97;;
50219;SDS011;36110;51.536;7.562;2023-04-24T07:14:00;5.57;;;4.65;;
50219;SDS011;36110;51.536;7.562;2023-04-24T07:16:25;6.72;;;5.40;;
50219;SDS011;36110;51.536;7.562;2023-04-24T07:18:51;6.25;;;5.20;;
50219;SDS011;36110;51.536;7.562;2023-04-24T07:21:17;8.77;;;7.32;;
50219;SDS011;36110;51.536;7.562;2023-04-24T07:23:42;7.85;;;6.57;;
50219;SDS011;36110;51.536;7.562;2023-04-24T07:26:07;8.90;;;6.35;;
50219;SDS011;36110;51.536;7.562;2023-04-24T07:28:33;9.13;;;7.93;;
50219;SDS011;36110;51.536;7.562;2023-04-24T07:30:58;5.90;;;4.43;;
50219;SDS011;36110;51.536;7.562;2023-04-24T07:33:25;5.35;;;4.60;;
50219;SDS011;36110;51.536;7.562;2023-04-24T07:35:53;6.90;;;5.47;;
50219;SDS011;36110;51.536;7.562;2023-04-24T07:38:18;4.40;;;3.90;;
50219;SDS011;36110;51.536;7.562;2023-04-24T07:40:47;5.95;;;5.22;;
50219;SDS011;36110;51.536;7.562;2023-04-24T07:43:13;4.88;;;4.38;;
50219;SDS011;36110;51.536;7.562;2023-04-24T07:45:38;7.95;;;7.15;;
50219;SDS011;36110;51.536;7.562;2023-04-24T07:48:04;3.70;;;3.40;;
50219;SDS011;36110;51.536;7.562;2023-04-24T07:50:30;6.80;;;4.75;;
50219;SDS011;36110;51.536;7.562;2023-04-24T07:52:55;5.38;;;4.85;;
50219;SDS011;36110;51.536;7.562;2023-04-24T07:55:21;7.75;;;4.75;;
50219;SDS011;36110;51.536;7.562;2023-04-24T07:57:46;5.68;;;5.15;;
50219;SDS011;36110;51.536;7.562;2023-04-24T08:00:11;6.18;;;4.63;;
50219;SDS011;36110;51.536;7.562;2023-04-24T08:02:37;7.40;;;5.63;;
50219;SDS011;36110;51.536;7.562;2023-04-24T08:05:02;9.15;;;6.95;;
50219;SDS011;36110;51.536;7.562;2023-04-24T08:07:28;7.45;;;6.05;;
50219;SDS011;36110;51.536;7.562;2023-04-24T08:09:54;4.88;;;4.30;;
50219;SDS011;36110;51.536;7.562;2023-04-24T08:12:19;10.55;;;6.53;;
50219;SDS011;36110;51.536;7.562;2023-04-24T08:14:44;6.93;;;4.53;;
50219;SDS011;36110;51.536;7.562;2023-04-24T08:17:10;4.25;;;3.53;;
50219;SDS011;36110;51.536;7.562;2023-04-24T08:19:35;2.33;;;2.13;;
50219;SDS011;36110;51.536;7.562;2023-04-24T08:22:01;7.18;;;4.85;;
50219;SDS011;36110;51.536;7.562;2023-04-24T08:24:26;7.20;;;5.80;;
50219;SDS011;36110;51.536;7.562;2023-04-24T08:26:51;6.68;;;5.75;;
50219;SDS011;36110;51.536;7.562;2023-04-24T08:29:18;6.53;;;5.63;;
50219;SDS011;36110;51.536;7.562;2023-04-24T08:31:44;4.55;;;4.15;;
50219;SDS011;36110;51.536;7.562;2023-04-24T08:34:10;5.65;;;5.15;;
50219;SDS011;36110;51.536;7.562;2023-04-24T08:36:35;3.53;;;3.20;;
50219;SDS011;36110;51.536;7.562;2023-04-24T08:39:01;4.13;;;3.72;;
50219;SDS011;36110;51.536;7.562;2023-04-24T08:41:27;4.47;;;4.05;;
50219;SDS011;36110;51.536;7.562;2023-04-24T08:43:52;6.07;;;5.40;;
50219;SDS011;36110;51.536;7.562;2023-04-24T08:46:18;4.68;;;3.75;;
50219;SDS011;36110;51.536;7.562;2023-04-24T08:48:44;5.65;;;5.07;;
50219;SDS011;36110;51.536;7.562;2023-04-24T08:51:10;7.05;;;6.18;;
50219;SDS011;36110;51.536;7.562;2023-04-24T08:53:36;5.43;;;4.78;;
50219;SDS011;36110;51.536;7.562;2023-04-24T08:56:02;4.63;;;4.13;;
50219;SDS011;36110;51.536;7.562;2023-04-24T08:58:28;7.70;;;5.65;;
50219;SDS011;36110;51.536;7.562;2023-04-24T09:00:54;4.78;;;3.25;;
50219;SDS011;36110;51.536;7.562;2023-04-24T09:03:20;3.72;;;2.90;;
50219;SDS011;36110;51.536;7.562;2023-04-24T09:05:47;6.13;;;4.38;;
50219;SDS011;36110;51.536;7.562;2023-04-24T09:08:14;4.68;;;3.08;;
50219;SDS011;36110;51.536;7.562;2023-04-24T09:10:41;1.95;;;1.75;;
50219;SDS011;36110;51.536;7.562;2023-04-24T09:13:06;1.13;;;1.02;;
50219;SDS011;36110;51.536;7.562;2023-04-24T09:15:34;2.00;;;1.80;;
50219;SDS011;36110;51.536;7.562;2023-04-24T09:17:59;2.88;;;1.45;;
50219;SDS011;36110;51.536;7.562;2023-04-24T09:20:25;2.08;;;1.92;;
50219;SDS011;36110;51.536;7.562;2023-04-24T09:22:53;1.25;;;1.13;;
50219;SDS011;36110;51.536;7.562;2023-04-24T09:25:20;2.55;;;1.90;;
50219;SDS011;36110;51.536;7.562;2023-04-24T09:27:45;3.65;;;2.97;;
50219;SDS011;36110;51.536;7.562;2023-04-24T09:30:11;2.47;;;2.28;;
50219;SDS011;36110;51.536;7.562;2023-04-24T09:32:36;2.75;;;2.50;;
50219;SDS011;36110;51.536;7.562;2023-04-24T09:35:12;2.33;;;2.13;;
50219;SDS011;36110;51.536;7.562;2023-04-24T09:37:38;2.67;;;2.15;;
50219;SDS011;36110;51.536;7.562;2023-04-24T09:40:16;5.45;;;2.60;;
50219;SDS011;36110;51.536;7.562;2023-04-24T09:42:55;2.97;;;2.35;;
50219;SDS011;36110;51.536;7.562;2023-04-24T09:45:28;2.65;;;2.45;;
50219;SDS011;36110;51.536;7.562;2023-04-24T09:47:54;3.05;;;2.33;;
50219;SDS011;36110;51.536;7.562;2023-04-24T09:50:20;3.42;;;2.35;;
50219;SDS011;36110;51.536;7.562;2023-04-24T09:52:47;2.40;;;2.17;;
50219;SDS011;36110;51.536;7.562;2023-04-24T09:55:21;2.80;;;2.50;;
50219;SDS011;36110;51.536;7.562;2023-04-24T09:57:56;3.53;;;2.20;;
50219;SDS011;36110;51.536;7.562;2023-04-24T10:02:50;2.03;;;1.92;;
50219;SDS011;36110;51.536;7.562;2023-04-24T10:05:16;3.63;;;2.30;;
50219;SDS011;36110;51.536;7.562;2023-04-24T10:07:42;2.33;;;2.17;;
50219;SDS011;36110;51.536;7.562;2023-04-24T10:10:08;2.50;;;2.30;;
50219;SDS011;36110;51.536;7.562;2023-04-24T10:12:34;2.63;;;2.28;;
50219;SDS011;36110;51.536;7.562;2023-04-24T10:14:59;2.40;;;2.10;;
50219;SDS011;36110;51.536;7.562;2023-04-24T10:17:26;3.58;;;2.05;;
50219;SDS011;36110;51.536;7.562;2023-04-24T10:19:52;2.13;;;1.92;;
50219;SDS011;36110;51.536;7.562;2023-04-24T10:22:18;2.67;;;2.10;;
50219;SDS011;36110;51.536;7.562;2023-04-24T10:24:43;2.72;;;2.30;;
50219;SDS011;36110;51.536;7.562;2023-04-24T10:27:09;2.10;;;1.90;;
50219;SDS011;36110;51.536;7.562;2023-04-24T10:29:34;2.08;;;1.75;;
50219;SDS011;36110;51.536;7.562;2023-04-24T10:32:00;1.88;;;1.77;;
50219;SDS011;36110;51.536;7.562;2023-04-24T10:34:26;2.53;;;1.65;;
50219;SDS011;36110;51.536;7.562;2023-04-24T10:36:51;3.47;;;2.22;;
50219;SDS011;36110;51.536;7.562;2023-04-24T10:39:18;2.50;;;2.20;;
50219;SDS011;36110;51.536;7.562;2023-04-24T10:41:43;2.92;;;2.25;;
50219;SDS011;36110;51.536;7.562;2023-04-24T10:44:13;2.30;;;2.10;;
50219;SDS011;36110;51.536;7.562;2023-04-24T10:46:42;2.33;;;2.10;;
50219;SDS011;36110;51.536;7.562;2023-04-24T10:49:09;2.13;;;1.80;;
50219;SDS011;36110;51.536;7.562;2023-04-24T10:54:33;3.00;;;2.30;;
50219;SDS011;36110;51.536;7.562;2023-04-24T10:57:45;2.40;;;2.20;;
50219;SDS011;36110;51.536;7.562;2023-04-24T10:59:48;2.72;;;2.22;;
50219;SDS011;36110;51.536;7.562;2023-04-24T11:02:15;2.35;;;2.15;;
50219;SDS011;36110;51.536;7.562;2023-04-24T11:04:41;3.92;;;2.10;;
50219;SDS011;36110;51.536;7.562;2023-04-24T11:07:12;3.13;;;2.40;;
50219;SDS011;36110;51.536;7.562;2023-04-24T11:09:38;3.28;;;2.90;;
50219;SDS011;36110;51.536;7.562;2023-04-24T11:12:07;3.33;;;2.47;;
50219;SDS011;36110;51.536;7.562;2023-04-24T11:17:36;2.00;;;1.90;;
50219;SDS011;36110;51.536;7.562;2023-04-24T11:20:07;2.65;;;2.30;;
50219;SDS011;36110;51.536;7.562;2023-04-24T11:22:35;4.55;;;2.95;;
50219;SDS011;36110;51.536;7.562;2023-04-24T11:25:01;2.08;;;1.98;;
50219;SDS011;36110;51.536;7.562;2023-04-24T11:27:29;2.90;;;2.50;;
50219;SDS011;36110;51.536;7.562;2023-04-24T11:34:52;4.43;;;3.17;;
50219;SDS011;36110;51.536;7.562;2023-04-24T11:37:18;1.95;;;1.80;;
50219;SDS011;36110;51.536;7.562;2023-04-24T11:39:44;2.53;;;1.92;;
50219;SDS011;36110;51.536;7.562;2023-04-24T11:42:09;2.20;;;2.00;;
50219;SDS011;36110;51.536;7.562;2023-04-24T11:44:35;2.60;;;2.40;;
50219;SDS011;36110;51.536;7.562;2023-04-24T11:47:03;2.80;;;2.42;;
50219;SDS011;36110;51.536;7.562;2023-04-24T11:49:29;3.03;;;2.22;;
50219;SDS011;36110;51.536;7.562;2023-04-24T11:51:55;2.67;;;2.42;;
50219;SDS011;36110;51.536;7.562;2023-04-24T11:54:20;4.22;;;2.67;;
50219;SDS011;36110;51.536;7.562;2023-04-24T11:56:46;2.53;;;2.10;;
50219;SDS011;36110;51.536;7.562;2023-04-24T11:59:12;10.77;;;3.85;;
50219;SDS011;36110;51.536;7.562;2023-04-24T12:01:44;5.28;;;3.00;;
50219;SDS011;36110;51.536;7.562;2023-04-24T12:04:10;4.63;;;2.83;;
50219;SDS011;36110;51.536;7.562;2023-04-24T12:06:36;3.97;;;2.80;;
50219;SDS011;36110;51.536;7.562;2023-04-24T12:09:01;6.20;;;2.83;;
50219;SDS011;36110;51.536;7.562;2023-04-24T12:11:26;5.18;;;2.92;;
50219;SDS011;36110;51.536;7.562;2023-04-24T12:13:52;2.65;;;2.45;;
50219;SDS011;36110;51.536;7.562;2023-04-24T12:16:17;3.13;;;2.17;;
50219;SDS011;36110;51.536;7.562;2023-04-24T12:18:43;2.90;;;2.10;;
50219;SDS011;36110;51.536;7.562;2023-04-24T12:21:19;3.13;;;2.10;;
50219;SDS011;36110;51.536;7.562;2023-04-24T12:23:45;3.30;;;2.13;;
50219;SDS011;36110;51.536;7.562;2023-04-24T12:26:11;8.57;;;4.68;;
50219;SDS011;36110;51.536;7.562;2023-04-24T12:28:40;3.83;;;2.40;;
50219;SDS011;36110;51.536;7.562;2023-04-24T12:31:06;6.00;;;3.35;;
50219;SDS011;36110;51.536;7.562;2023-04-24T12:33:32;3.83;;;2.63;;
50219;SDS011;36110;51.536;7.562;2023-04-24T12:35:59;4.20;;;2.67;;
50219;SDS011;36110;51.536;7.562;2023-04-24T12:38:25;3.83;;;2.25;;
50219;SDS011;36110;51.536;7.562;2023-04-24T12:41:05;4.55;;;2.47;;
50219;SDS011;36110;51.536;7.562;2023-04-24T12:43:31;5.57;;;3.13;;
50219;SDS011;36110;51.536;7.562;2023-04-24T12:45:57;8.90;;;4.03;;
50219;SDS011;36110;51.536;7.562;2023-04-24T12:48:22;7.38;;;3.75;;
50219;SDS011;36110;51.536;7.562;2023-04-24T12:50:47;3.67;;;2.80;;
50219;SDS011;36110;51.536;7.562;2023-04-24T12:53:13;9.95;;;3.80;;
50219;SDS011;36110;51.536;7.562;2023-04-24T12:55:38;2.30;;;2.10;;
50219;SDS011;36110;51.536;7.562;2023-04-24T12:58:04;4.05;;;2.55;;
50219;SDS011;36110;51.536;7.562;2023-04-24T13:00:29;4.20;;;2.38;;
50219;SDS011;36110;51.536;7.562;2023-04-24T13:02:54;3.63;;;2.40;;
50219;SDS011;36110;51.536;7.562;2023-04-24T13:05:20;4.50;;;2.30;;
50219;SDS011;36110;51.536;7.562;2023-04-24T13:07:45;3.72;;;2.70;;
50219;SDS011;36110;51.536;7.562;2023-04-24T13:10:10;3.05;;;2.35;;
50219;SDS011;36110;51.536;7.562;2023-04-24T13:12:36;5.05;;;2.60;;
50219;SDS011;36110;51.536;7.562;2023-04-24T13:15:02;6.07;;;3.00;;
50219;SDS011;36110;51.536;7.562;2023-04-24T13:17:28;4.57;;;2.45;;
50219;SDS011;36110;51.536;7.562;2023-04-24T13:19:54;3.20;;;2.30;;
50219;SDS011;36110;51.536;7.562;2023-04-24T13:22:19;4.03;;;2.58;;
50219;SDS011;36110;51.536;7.562;2023-04-24T13:24:45;7.70;;;3.03;;
50219;SDS011;36110;51.536;7.562;2023-04-24T13:27:13;6.43;;;3.45;;
50219;SDS011;36110;51.536;7.562;2023-04-24T13:29:39;11.95;;;4.43;;
50219;SDS011;36110;51.536;7.562;2023-04-24T13:32:04;7.05;;;3.42;;
50219;SDS011;36110;51.536;7.562;2023-04-24T13:34:30;8.13;;;3.75;;
50219;SDS011;36110;51.536;7.562;2023-04-24T13:36:56;9.65;;;3.83;;
50219;SDS011;36110;51.536;7.562;2023-04-24T13:39:23;7.43;;;3.50;;
50219;SDS011;36110;51.536;7.562;2023-04-24T13:41:48;6.65;;;3.47;;
50219;SDS011;36110;51.536;7.562;2023-04-24T13:44:14;12.65;;;3.40;;
50219;SDS011;36110;51.536;7.562;2023-04-24T13:46:42;5.72;;;3.45;;
50219;SDS011;36110;51.536;7.562;2023-04-24T13:49:09;7.38;;;3.53;;
50219;SDS011;36110;51.536;7.562;2023-04-24T13:51:34;6.90;;;3.58;;
50219;SDS011;36110;51.536;7.562;2023-04-24T13:54:00;8.27;;;3.60;;
50219;SDS011;36110;51.536;7.562;2023-04-24T13:56:25;6.68;;;3.80;;
50219;SDS011;36110;51.536;7.562;2023-04-24T13:58:50;9.75;;;3.08;;
50219;SDS011;36110;51.536;7.562;2023-04-24T14:01:16;5.40;;;2.80;;
50219;SDS011;36110;51.536;7.562;2023-04-24T14:03:41;5.15;;;3.03;;
50219;SDS011;36110;51.536;7.562;2023-04-24T14:06:08;5.93;;;2.85;;
50219;SDS011;36110;51.536;7.562;2023-04-24T14:08:33;7.65;;;2.90;;
50219;SDS011;36110;51.536;7.562;2023-04-24T14:10:58;5.03;;;3.28;;
50219;SDS011;36110;51.536;7.562;2023-04-24T14:13:24;5.53;;;2.55;;
50219;SDS011;36110;51.536;7.562;2023-04-24T14:15:49;5.88;;;2.80;;
50219;SDS011;36110;51.536;7.562;2023-04-24T14:18:14;5.40;;;2.72;;
50219;SDS011;36110;51.536;7.562;2023-04-24T14:20:40;5.72;;;2.65;;
50219;SDS011;36110;51.536;7.562;2023-04-24T14:23:05;6.38;;;2.80;;
50219;SDS011;36110;51.536;7.562;2023-04-24T14:25:31;7.18;;;2.83;;
50219;SDS011;36110;51.536;7.562;2023-04-24T14:27:56;4.60;;;3.15;;
50219;SDS011;36110;51.536;7.562;2023-04-24T14:30:21;4.35;;;2.50;;
50219;SDS011;36110;51.536;7.562;2023-04-24T14:32:47;4.15;;;2.40;;
50219;SDS011;36110;51.536;7.562;2023-04-24T14:35:13;5.50;;;2.20;;
50219;SDS011;36110;51.536;7.562;2023-04-24T14:37:39;3.85;;;2.30;;
50219;SDS011;36110;51.536;7.562;2023-04-24T14:40:06;3.58;;;2.60;;
50219;SDS011;36110;51.536;7.562;2023-04-24T14:42:34;3.88;;;2.42;;
50219;SDS011;36110;51.536;7.562;2023-04-24T14:45:00;5.45;;;2.50;;
50219;SDS011;36110;51.536;7.562;2023-04-24T14:47:25;3.78;;;2.30;;
50219;SDS011;36110;51.536;7.562;2023-04-24T14:49:50;3.70;;;2.20;;
50219;SDS011;36110;51.536;7.562;2023-04-24T14:52:16;5.97;;;2.53;;